Time;durP1;ratioP1;P1;durP2;ratioP2;P2;SDS_P1;SDS_P2;PMS_P1;PMS_P2;Temp;Humidity;BMP_temperature;BMP_pressure;BME280_temperature;BME280_humidity;BME280_pressure;Samples;Min_cycle;Max_cycle;Signal;HPM_P1;HPM_P2
2023/03/30 00:00:57;;;;;;;4.50;3.13;;;;;;;;;;5012893;28;20206;-38
2023/03/30 00:03:25;;;;;;;3.27;2.63;;;;;;;;;;5034193;28;20605;-40
2023/03/30 00:05:55;;;;;;;3.57;3.23;;;;;;;;;;5023658;28;20617;-37
2023/03/30 00:08:27;;;;;;;5.33;3.30;;;;;;;;;;5030604;28;20210;-40
2023/03/30 00:10:54;;;;;;;6.27;3.23;;;;;;;;;;5026616;28;20285;-41
2023/03/30 00:13:21;;;;;;;6.33;3.80;;;;;;;;;;5022854;28;20222;-37
2023/03/30 00:15:49;;;;;;;4.17;3.47;;;;;;;;;;5026191;28;20206;-39
2023/03/30 00:18:17;;;;;;;3.77;3.27;;;;;;;;;;5038814;28;20226;-41
2023/03/30 00:20:44;;;;;;;5.63;3.43;;;;;;;;;;5011559;28;20237;-40
2023/03/30 00:23:12;;;;;;;5.87;3.10;;;;;;;;;;5011553;28;20235;-41
2023/03/30 00:25:39;;;;;;;4.60;3.47;;;;;;;;;;5026518;28;20206;-39
2023/03/30 00:28:07;;;;;;;8.10;3.70;;;;;;;;;;5016688;28;20204;-38
2023/03/30 00:30:35;;;;;;;4.70;2.87;;;;;;;;;;5029548;28;20206;-33
2023/03/30 00:33:03;;;;;;;4.63;3.17;;;;;;;;;;5026507;28;20260;-41
2023/03/30 00:35:30;;;;;;;3.57;3.10;;;;;;;;;;5019896;28;20214;-40
2023/03/30 00:38:00;;;;;;;4.87;3.47;;;;;;;;;;5028359;28;20704;-40
2023/03/30 00:40:28;;;;;;;3.87;2.97;;;;;;;;;;5026014;28;20706;-39
2023/03/30 00:42:58;;;;;;;4.43;2.87;;;;;;;;;;5031051;28;20228;-41
2023/03/30 00:45:26;;;;;;;5.53;2.87;;;;;;;;;;5026416;28;20293;-41
2023/03/30 00:47:57;;;;;;;3.53;2.83;;;;;;;;;;5032374;28;20223;-41
2023/03/30 00:50:28;;;;;;;4.77;3.00;;;;;;;;;;5023193;28;20230;-38
2023/03/30 00:52:57;;;;;;;5.53;3.13;;;;;;;;;;5015540;28;20238;-37
2023/03/30 00:55:25;;;;;;;3.87;3.00;;;;;;;;;;5022471;28;20306;-39
2023/03/30 00:57:55;;;;;;;3.37;2.93;;;;;;;;;;5019138;28;20258;-42
2023/03/30 01:00:22;;;;;;;3.90;3.03;;;;;;;;;;5011099;28;20294;-40
2023/03/30 01:02:52;;;;;;;4.43;2.80;;;;;;;;;;5029244;28;20693;-40
2023/03/30 01:05:20;;;;;;;4.53;2.93;;;;;;;;;;5014250;28;20255;-40
2023/03/30 01:07:48;;;;;;;5.37;3.10;;;;;;;;;;5011519;28;20229;-40
2023/03/30 01:10:16;;;;;;;3.30;2.77;;;;;;;;;;5011324;28;20207;-41
2023/03/30 01:12:43;;;;;;;7.83;3.67;;;;;;;;;;5023894;28;20239;-37
2023/03/30 01:15:14;;;;;;;5.73;3.57;;;;;;;;;;5016490;28;20202;-41
2023/03/30 01:17:48;;;;;;;5.47;3.40;;;;;;;;;;5027333;28;20626;-36
2023/03/30 01:20:40;;;;;;;3.20;2.90;;;;;;;;;;5024929;28;20302;-36
2023/03/30 01:23:26;;;;;;;4.23;3.23;;;;;;;;;;5015239;28;20223;-37
2023/03/30 01:26:07;;;;;;;4.83;3.37;;;;;;;;;;5013592;28;20265;-36
2023/03/30 01:28:39;;;;;;;4.97;3.07;;;;;;;;;;5020746;28;20219;-40
2023/03/30 01:31:24;;;;;;;4.37;3.10;;;;;;;;;;5028198;28;20210;-41
2023/03/30 01:34:15;;;;;;;5.87;3.40;;;;;;;;;;5020385;28;20306;-35
2023/03/30 01:37:00;;;;;;;6.37;3.30;;;;;;;;;;5008282;28;20206;-34
2023/03/30 01:39:33;;;;;;;4.70;3.60;;;;;;;;;;5033147;28;20226;-42
2023/03/30 01:42:03;;;;;;;3.50;3.20;;;;;;;;;;5025549;28;20619;-39
2023/03/30 01:44:33;;;;;;;5.00;3.57;;;;;;;;;;5030596;28;20236;-40
2023/03/30 01:47:04;;;;;;;5.23;4.00;;;;;;;;;;5035286;28;20657;-40
2023/03/30 01:49:36;;;;;;;6.57;3.50;;;;;;;;;;5015228;28;20195;-41
2023/03/30 01:52:05;;;;;;;6.13;3.63;;;;;;;;;;5032447;28;20274;-35
2023/03/30 01:54:36;;;;;;;6.67;3.77;;;;;;;;;;5024134;28;20241;-39
2023/03/30 01:57:05;;;;;;;7.00;3.90;;;;;;;;;;5019218;28;20203;-41
2023/03/30 01:59:35;;;;;;;4.13;3.13;;;;;;;;;;5015047;28;20257;-41
2023/03/30 02:02:05;;;;;;;12.43;4.10;;;;;;;;;;5030099;28;20202;-38
2023/03/30 02:04:35;;;;;;;6.07;3.90;;;;;;;;;;5014184;28;20227;-41
2023/03/30 02:07:05;;;;;;;5.90;3.60;;;;;;;;;;5012150;28;20290;-43
2023/03/30 02:09:33;;;;;;;7.07;4.20;;;;;;;;;;5022940;28;20203;-41
2023/03/30 02:12:02;;;;;;;4.70;3.70;;;;;;;;;;5023592;28;20209;-40
2023/03/30 02:14:31;;;;;;;4.70;3.30;;;;;;;;;;5031306;28;20226;-39
2023/03/30 02:17:00;;;;;;;4.40;2.90;;;;;;;;;;5030066;28;20289;-41
2023/03/30 02:19:28;;;;;;;5.57;3.37;;;;;;;;;;5025985;28;20219;-38
2023/03/30 02:21:56;;;;;;;3.53;2.90;;;;;;;;;;5032116;28;20234;-41
2023/03/30 02:24:24;;;;;;;6.27;3.97;;;;;;;;;;5025500;28;20418;-42
2023/03/30 02:26:52;;;;;;;5.47;4.00;;;;;;;;;;5015474;28;20213;-37
2023/03/30 02:29:21;;;;;;;6.30;3.70;;;;;;;;;;5032368;28;20214;-39
2023/03/30 02:31:50;;;;;;;6.13;3.30;;;;;;;;;;5024395;28;20203;-36
2023/03/30 02:34:22;;;;;;;8.00;4.00;;;;;;;;;;5036229;28;20226;-39
2023/03/30 02:36:59;;;;;;;7.30;3.60;;;;;;;;;;5020205;28;20211;-39
2023/03/30 02:39:33;;;;;;;5.10;3.67;;;;;;;;;;5015727;28;20207;-41
2023/03/30 02:42:19;;;;;;;5.17;3.23;;;;;;;;;;5015132;28;20211;-41
2023/03/30 02:44:51;;;;;;;6.67;3.33;;;;;;;;;;5023057;28;20256;-40
2023/03/30 02:47:22;;;;;;;4.77;3.10;;;;;;;;;;5038489;28;20213;-39
2023/03/30 02:49:53;;;;;;;7.67;3.17;;;;;;;;;;5023176;28;20204;-43
2023/03/30 02:52:32;;;;;;;4.90;3.77;;;;;;;;;;5015686;28;20235;-40
2023/03/30 02:55:03;;;;;;;9.07;3.60;;;;;;;;;;5279121;23;20291;-29
2023/03/30 02:57:33;;;;;;;4.53;3.10;;;;;;;;;;5071559;28;20213;-26
2023/03/30 03:00:07;;;;;;;3.90;2.90;;;;;;;;;;5061460;28;20226;-26
2023/03/30 03:02:36;;;;;;;5.20;3.43;;;;;;;;;;5055487;28;20232;-26
2023/03/30 03:05:03;;;;;;;5.37;3.30;;;;;;;;;;5059916;28;20230;-28
2023/03/30 03:07:32;;;;;;;4.63;3.20;;;;;;;;;;5074769;28;20205;-28
2023/03/30 03:09:59;;;;;;;7.70;3.30;;;;;;;;;;5067613;28;20210;-28
2023/03/30 03:12:27;;;;;;;6.90;4.03;;;;;;;;;;5064586;28;20208;-28
2023/03/30 03:14:54;;;;;;;5.83;3.40;;;;;;;;;;5056164;28;20206;-29
2023/03/30 03:17:23;;;;;;;5.77;3.30;;;;;;;;;;5060433;28;20274;-28
2023/03/30 03:19:50;;;;;;;4.33;3.23;;;;;;;;;;5060184;28;20218;-26
2023/03/30 03:22:17;;;;;;;5.33;3.00;;;;;;;;;;5053762;28;20212;-27
2023/03/30 03:24:45;;;;;;;5.97;3.60;;;;;;;;;;5059061;28;20197;-26
2023/03/30 03:27:12;;;;;;;4.37;3.50;;;;;;;;;;5058729;28;20272;-28
2023/03/30 03:29:39;;;;;;;4.33;3.27;;;;;;;;;;5067898;28;20201;-26
2023/03/30 03:32:07;;;;;;;8.40;3.23;;;;;;;;;;5067964;28;20202;-26
2023/03/30 03:34:35;;;;;;;4.20;2.77;;;;;;;;;;5055385;28;20218;-29
2023/03/30 03:37:03;;;;;;;4.57;2.80;;;;;;;;;;5055704;28;20210;-27
2023/03/30 03:39:30;;;;;;;4.10;2.80;;;;;;;;;;5057964;28;20221;-27
2023/03/30 03:41:57;;;;;;;4.10;3.10;;;;;;;;;;5066318;28;20227;-29
2023/03/30 03:44:25;;;;;;;4.83;3.20;;;;;;;;;;5056231;28;20229;-29
2023/03/30 03:46:52;;;;;;;8.53;3.97;;;;;;;;;;5066180;28;20213;-28
2023/03/30 03:49:19;;;;;;;4.93;3.30;;;;;;;;;;5053278;28;20205;-26
2023/03/30 03:51:48;;;;;;;9.07;3.93;;;;;;;;;;5073373;28;20205;-26
2023/03/30 03:54:15;;;;;;;10.67;3.57;;;;;;;;;;5071064;28;20237;-27
2023/03/30 03:56:42;;;;;;;5.00;3.97;;;;;;;;;;5055344;28;20221;-26
2023/03/30 03:59:09;;;;;;;6.77;3.47;;;;;;;;;;5052625;28;20236;-28
2023/03/30 04:01:36;;;;;;;9.27;3.77;;;;;;;;;;5051361;28;20214;-27
2023/03/30 04:04:03;;;;;;;8.43;3.57;;;;;;;;;;5061510;28;20233;-29
2023/03/30 04:06:31;;;;;;;8.00;3.43;;;;;;;;;;5053777;28;20209;-26
2023/03/30 04:09:00;;;;;;;7.53;3.40;;;;;;;;;;5053496;28;20198;-29
2023/03/30 04:11:27;;;;;;;6.80;3.20;;;;;;;;;;5052858;28;20214;-27
2023/03/30 04:13:55;;;;;;;6.70;3.60;;;;;;;;;;5060325;28;20221;-30
2023/03/30 04:16:22;;;;;;;7.77;3.30;;;;;;;;;;5060467;28;20212;-29
2023/03/30 04:18:49;;;;;;;6.27;3.60;;;;;;;;;;5058756;28;20233;-26
2023/03/30 04:21:16;;;;;;;5.60;3.40;;;;;;;;;;5053403;28;20210;-27
2023/03/30 04:23:47;;;;;;;8.90;3.47;;;;;;;;;;5053737;28;20237;-29
2023/03/30 04:26:16;;;;;;;3.67;3.10;;;;;;;;;;5059217;28;20205;-26
2023/03/30 04:28:45;;;;;;;11.17;3.60;;;;;;;;;;5064036;28;20206;-29
2023/03/30 04:31:13;;;;;;;5.60;3.43;;;;;;;;;;5055977;28;20209;-28
2023/03/30 04:33:49;;;;;;;7.00;3.53;;;;;;;;;;5061556;28;20225;-29
2023/03/30 04:36:17;;;;;;;5.17;2.83;;;;;;;;;;5068977;28;20292;-26
2023/03/30 04:38:56;;;;;;;6.80;3.10;;;;;;;;;;5072278;28;20201;-26
2023/03/30 04:41:25;;;;;;;4.03;3.17;;;;;;;;;;5055957;28;20213;-26
2023/03/30 04:43:53;;;;;;;9.90;3.70;;;;;;;;;;5055150;28;20217;-27
2023/03/30 04:46:20;;;;;;;7.93;3.47;;;;;;;;;;5056842;28;20202;-28
2023/03/30 04:48:47;;;;;;;9.63;3.53;;;;;;;;;;5055311;28;20303;-26
2023/03/30 04:51:14;;;;;;;7.97;3.20;;;;;;;;;;5072653;28;20205;-29
2023/03/30 04:53:41;;;;;;;10.03;4.13;;;;;;;;;;5062933;28;20226;-28
2023/03/30 04:56:08;;;;;;;7.13;3.10;;;;;;;;;;5054142;28;20220;-27
2023/03/30 04:58:37;;;;;;;6.97;3.20;;;;;;;;;;5061002;28;20293;-27
2023/03/30 05:01:04;;;;;;;9.40;3.50;;;;;;;;;;5061250;28;20205;-26
2023/03/30 05:03:31;;;;;;;12.03;3.33;;;;;;;;;;5072626;28;20247;-26
2023/03/30 05:05:58;;;;;;;7.87;3.33;;;;;;;;;;5055687;28;20202;-26
2023/03/30 05:08:25;;;;;;;6.43;2.90;;;;;;;;;;5055859;28;20232;-26
2023/03/30 05:10:52;;;;;;;11.67;4.10;;;;;;;;;;5059206;28;20201;-27
2023/03/30 05:13:20;;;;;;;7.10;3.37;;;;;;;;;;5069519;28;20221;-26
2023/03/30 05:15:54;;;;;;;10.43;3.70;;;;;;;;;;5057593;28;20208;-26
2023/03/30 05:18:21;;;;;;;5.73;4.27;;;;;;;;;;5058080;28;20227;-26
2023/03/30 05:20:48;;;;;;;12.57;4.30;;;;;;;;;;5055350;28;20225;-28
2023/03/30 05:23:16;;;;;;;8.53;3.47;;;;;;;;;;5057106;28;20233;-30
2023/03/30 05:25:45;;;;;;;5.90;3.93;;;;;;;;;;5049391;28;20209;-28
2023/03/30 05:28:12;;;;;;;9.47;3.97;;;;;;;;;;5049449;28;20292;-27
2023/03/30 05:30:39;;;;;;;3.67;3.00;;;;;;;;;;5047194;28;20206;-28
2023/03/30 05:33:08;;;;;;;9.17;3.63;;;;;;;;;;5051417;28;20296;-27
2023/03/30 05:35:36;;;;;;;8.17;3.83;;;;;;;;;;5048671;28;20216;-26
2023/03/30 05:38:03;;;;;;;10.93;4.50;;;;;;;;;;5049163;28;20210;-25
2023/03/30 05:40:31;;;;;;;8.43;3.67;;;;;;;;;;5052430;28;20214;-26
2023/03/30 05:42:58;;;;;;;8.73;4.00;;;;;;;;;;5061831;28;20217;-28
2023/03/30 05:45:25;;;;;;;5.93;3.60;;;;;;;;;;5061123;28;20205;-26
2023/03/30 05:47:54;;;;;;;6.40;3.07;;;;;;;;;;5065863;28;20254;-28
2023/03/30 05:50:23;;;;;;;5.60;3.50;;;;;;;;;;5071853;28;20262;-29
2023/03/30 05:52:50;;;;;;;8.37;3.57;;;;;;;;;;5068988;28;20229;-28
2023/03/30 05:55:17;;;;;;;8.47;3.73;;;;;;;;;;5055917;28;20267;-28
2023/03/30 05:57:44;;;;;;;5.90;3.67;;;;;;;;;;5062469;28;20197;-26
2023/03/30 06:00:14;;;;;;;5.27;3.40;;;;;;;;;;5067830;28;20220;-25
2023/03/30 06:02:41;;;;;;;5.77;3.37;;;;;;;;;;5071944;28;20229;-27
2023/03/30 06:05:08;;;;;;;6.97;3.27;;;;;;;;;;5061980;28;20205;-27
2023/03/30 06:07:37;;;;;;;10.63;3.83;;;;;;;;;;5075652;28;20205;-28
2023/03/30 06:10:04;;;;;;;6.33;3.60;;;;;;;;;;5065305;28;20202;-28
2023/03/30 06:12:32;;;;;;;6.00;3.10;;;;;;;;;;5057519;28;20225;-26
2023/03/30 06:15:01;;;;;;;12.17;5.60;;;;;;;;;;5059086;28;20296;-28
2023/03/30 06:17:28;;;;;;;12.77;4.30;;;;;;;;;;5064707;28;20209;-26
2023/03/30 06:19:55;;;;;;;6.97;3.10;;;;;;;;;;5062024;28;20226;-26
2023/03/30 06:22:23;;;;;;;8.40;3.63;;;;;;;;;;5055556;28;20201;-26
2023/03/30 06:24:51;;;;;;;8.07;3.87;;;;;;;;;;5055191;28;20212;-29
2023/03/30 06:27:18;;;;;;;11.33;3.77;;;;;;;;;;5055330;28;20213;-28
2023/03/30 06:29:45;;;;;;;11.43;4.53;;;;;;;;;;5069768;28;20224;-29
2023/03/30 06:32:12;;;;;;;10.90;3.57;;;;;;;;;;5059499;28;20225;-27
2023/03/30 06:34:40;;;;;;;6.40;3.00;;;;;;;;;;5054690;28;20202;-26
2023/03/30 06:37:08;;;;;;;9.40;3.70;;;;;;;;;;5055308;28;20205;-29
2023/03/30 06:39:36;;;;;;;14.30;4.17;;;;;;;;;;5054570;28;20280;-27
2023/03/30 06:42:05;;;;;;;6.87;4.07;;;;;;;;;;5068126;28;20227;-28
2023/03/30 06:44:34;;;;;;;10.03;4.40;;;;;;;;;;5060863;28;20241;-27
2023/03/30 06:47:01;;;;;;;10.23;4.10;;;;;;;;;;5069397;28;20301;-26
2023/03/30 06:49:29;;;;;;;10.73;4.00;;;;;;;;;;5063910;28;20198;-28
2023/03/30 06:51:56;;;;;;;13.30;3.60;;;;;;;;;;5074757;28;20205;-28
2023/03/30 06:54:24;;;;;;;9.20;3.37;;;;;;;;;;5065541;28;20229;-27
2023/03/30 06:56:52;;;;;;;9.50;4.20;;;;;;;;;;5062075;28;20221;-28
2023/03/30 06:59:21;;;;;;;11.20;4.00;;;;;;;;;;5069318;28;20205;-28
2023/03/30 07:01:48;;;;;;;7.43;3.43;;;;;;;;;;5073581;28;20213;-28
2023/03/30 07:04:15;;;;;;;9.23;3.67;;;;;;;;;;5074251;28;20569;-27
2023/03/30 07:06:42;;;;;;;4.50;2.73;;;;;;;;;;5074888;28;20196;-27
2023/03/30 07:09:11;;;;;;;7.43;3.47;;;;;;;;;;5068145;28;20204;-29
2023/03/30 07:11:38;;;;;;;6.20;3.60;;;;;;;;;;5059155;28;20206;-29
2023/03/30 07:14:06;;;;;;;9.77;3.13;;;;;;;;;;5057948;28;20218;-28
2023/03/30 07:16:35;;;;;;;6.13;2.97;;;;;;;;;;5055569;28;20219;-29
2023/03/30 07:19:02;;;;;;;10.47;3.23;;;;;;;;;;5062438;28;20198;-26
2023/03/30 07:21:30;;;;;;;10.47;3.50;;;;;;;;;;5054262;28;20218;-27
2023/03/30 07:23:59;;;;;;;8.80;3.30;;;;;;;;;;5053702;28;20237;-30
2023/03/30 07:26:27;;;;;;;13.67;4.13;;;;;;;;;;5068471;28;20205;-26
2023/03/30 07:28:55;;;;;;;6.90;3.47;;;;;;;;;;5073824;28;20202;-29
2023/03/30 07:31:24;;;;;;;10.27;3.87;;;;;;;;;;5061783;28;20202;-29
2023/03/30 07:33:56;;;;;;;11.90;3.83;;;;;;;;;;5067522;28;20255;-28
2023/03/30 07:36:29;;;;;;;10.83;3.77;;;;;;;;;;5066525;28;20197;-26
2023/03/30 07:39:05;;;;;;;6.67;2.57;;;;;;;;;;5058110;28;20217;-28
2023/03/30 07:41:42;;;;;;;11.80;3.43;;;;;;;;;;5065017;28;20223;-26
2023/03/30 07:44:12;;;;;;;9.13;3.17;;;;;;;;;;5074375;28;20225;-29
2023/03/30 07:46:44;;;;;;;8.90;3.57;;;;;;;;;;5056863;28;20205;-26
2023/03/30 07:59:30;;;;;;;10.17;3.60;;;;;;;;;;5029951;28;20211;-27
2023/03/30 08:02:02;;;;;;;11.07;3.20;;;;;;;;;;5028755;28;20262;-26
2023/03/30 08:04:33;;;;;;;11.77;2.80;;;;;;;;;;4998713;28;20219;-26
2023/03/30 08:07:07;;;;;;;9.57;3.10;;;;;;;;;;5007814;28;20266;-27
2023/03/30 08:09:39;;;;;;;12.77;3.20;;;;;;;;;;5005749;28;20237;-27
2023/03/30 08:18:17;;;;;;;7.10;2.80;;;;;;;;;;4996819;28;20293;-25
2023/03/30 08:26:35;;;;;;;10.53;3.07;;;;;;;;;;5000392;28;20211;-29
2023/03/30 08:29:20;;;;;;;7.27;2.90;;;;;;;;;;5011663;28;20187;-27
2023/03/30 08:32:11;;;;;;;7.40;3.40;;;;;;;;;;5011243;28;20211;-27
2023/03/30 09:01:25;;;;;;;5.20;2.80;;;;;;;;;;4868771;29;20237;-26
2023/03/30 09:04:16;;;;;;;9.30;2.90;;;;;;;;;;4948178;29;20233;-25
2023/03/30 09:06:52;;;;;;;10.53;3.20;;;;;;;;;;4953618;29;20209;-27
2023/03/30 09:15:20;;;;;;;10.10;3.80;;;;;;;;;;4944111;29;20206;-26
2023/03/30 09:17:54;;;;;;;11.30;3.60;;;;;;;;;;4951708;29;20518;-26
2023/03/30 09:20:25;;;;;;;10.70;3.67;;;;;;;;;;4948747;29;20216;-27
2023/03/30 09:22:54;;;;;;;9.23;3.67;;;;;;;;;;4944907;28;20305;-28
2023/03/30 09:25:33;;;;;;;9.43;3.50;;;;;;;;;;4948468;29;20205;-26
2023/03/30 09:28:07;;;;;;;7.77;3.00;;;;;;;;;;4952439;29;20197;-28
2023/03/30 09:30:39;;;;;;;6.33;3.00;;;;;;;;;;4947478;29;20271;-25
2023/03/30 09:33:25;;;;;;;6.27;3.30;;;;;;;;;;4941829;29;20233;-26
2023/03/30 09:36:32;;;;;;;7.93;2.97;;;;;;;;;;4945589;29;20201;-26
2023/03/30 09:39:10;;;;;;;5.83;2.57;;;;;;;;;;4941754;29;20201;-29
2023/03/30 09:41:55;;;;;;;7.77;2.53;;;;;;;;;;4963097;28;20642;-28
2023/03/30 09:44:30;;;;;;;3.00;2.13;;;;;;;;;;4946121;29;20232;-25
2023/03/30 09:47:12;;;;;;;7.53;2.93;;;;;;;;;;4950248;29;20204;-26
2023/03/30 09:49:43;;;;;;;5.70;2.17;;;;;;;;;;4952531;29;20201;-27
2023/03/30 10:01:24;;;;;;;5.57;2.33;;;;;;;;;;4924960;29;20237;-28
2023/03/30 10:04:33;;;;;;;;;;;;;;;;;;;;;
2023/03/30 10:09:32;;;;;;;6.50;2.73;;;;;;;;;;4962933;28;20300;-40
2023/03/30 10:11:59;;;;;;;7.33;3.00;;;;;;;;;;4971657;28;20563;-40
2023/03/30 10:14:30;;;;;;;7.10;3.00;;;;;;;;;;4963149;28;20734;-39
2023/03/30 10:16:57;;;;;;;7.83;2.70;;;;;;;;;;4967255;28;20216;-39
2023/03/30 10:19:25;;;;;;;10.33;3.57;;;;;;;;;;4963210;28;20205;-42
2023/03/30 10:21:54;;;;;;;4.23;2.70;;;;;;;;;;4964293;28;20221;-41
2023/03/30 10:24:22;;;;;;;14.57;3.63;;;;;;;;;;4962704;28;20239;-43
2023/03/30 10:26:54;;;;;;;4.10;3.00;;;;;;;;;;4966448;28;20236;-42
2023/03/30 10:29:22;;;;;;;9.13;3.27;;;;;;;;;;4960767;28;20201;-42
2023/03/30 10:31:52;;;;;;;6.30;3.23;;;;;;;;;;4967368;28;20213;-42
2023/03/30 10:34:21;;;;;;;9.23;3.40;;;;;;;;;;4965695;28;20227;-40
2023/03/30 10:36:49;;;;;;;6.07;2.80;;;;;;;;;;4961817;28;20312;-41
2023/03/30 10:39:20;;;;;;;4.37;2.87;;;;;;;;;;4963730;28;20569;-41
2023/03/30 10:41:47;;;;;;;7.13;2.73;;;;;;;;;;4959620;28;20711;-43
2023/03/30 10:44:18;;;;;;;6.17;2.90;;;;;;;;;;4957816;28;20232;-39
2023/03/30 10:46:46;;;;;;;11.70;3.03;;;;;;;;;;4958955;28;20277;-39
2023/03/30 10:49:17;;;;;;;7.33;3.43;;;;;;;;;;4966805;28;20200;-43
2023/03/30 10:51:51;;;;;;;7.03;3.50;;;;;;;;;;4968969;28;20215;-40
2023/03/30 10:54:22;;;;;;;5.77;2.50;;;;;;;;;;4963467;28;20225;-38
2023/03/30 10:56:51;;;;;;;11.13;4.10;;;;;;;;;;4967748;28;20295;-40
2023/03/30 10:59:30;;;;;;;6.93;4.23;;;;;;;;;;4963797;28;20233;-42
2023/03/30 11:02:03;;;;;;;4.60;3.10;;;;;;;;;;4967103;28;20220;-42
2023/03/30 11:04:35;;;;;;;6.33;3.10;;;;;;;;;;4965225;28;20221;-37
2023/03/30 11:07:02;;;;;;;6.97;4.03;;;;;;;;;;4962948;28;20205;-40
2023/03/30 11:09:31;;;;;;;6.30;3.60;;;;;;;;;;4985175;28;20218;-37
2023/03/30 11:12:01;;;;;;;8.13;3.80;;;;;;;;;;4985735;28;20196;-43
2023/03/30 11:14:35;;;;;;;9.17;3.33;;;;;;;;;;4976528;28;20232;-40
2023/03/30 11:17:06;;;;;;;6.97;2.80;;;;;;;;;;4981841;28;20593;-40
2023/03/30 11:19:35;;;;;;;6.37;3.27;;;;;;;;;;4983324;28;20206;-37
2023/03/30 11:22:06;;;;;;;4.77;2.80;;;;;;;;;;4986868;28;20228;-39
2023/03/30 11:24:46;;;;;;;8.70;3.33;;;;;;;;;;4984140;28;20311;-41
2023/03/30 11:27:16;;;;;;;7.60;3.10;;;;;;;;;;4978463;28;20490;-37
2023/03/30 11:29:46;;;;;;;6.27;2.50;;;;;;;;;;4977383;28;20216;-37
2023/03/30 11:32:22;;;;;;;3.27;2.07;;;;;;;;;;4979489;28;20200;-36
2023/03/30 11:34:52;;;;;;;4.70;2.50;;;;;;;;;;4980602;28;20214;-43
2023/03/30 11:37:23;;;;;;;4.13;2.40;;;;;;;;;;4978995;28;20196;-43
2023/03/30 11:39:53;;;;;;;3.57;2.20;;;;;;;;;;4978581;28;20204;-39
2023/03/30 11:42:22;;;;;;;4.43;2.20;;;;;;;;;;4978818;28;20247;-43
2023/03/30 11:44:51;;;;;;;6.97;2.50;;;;;;;;;;4976979;28;20660;-42
2023/03/30 11:47:26;;;;;;;7.03;2.47;;;;;;;;;;4979135;28;20209;-39
2023/03/30 11:49:58;;;;;;;5.27;2.20;;;;;;;;;;4977398;28;20521;-40
2023/03/30 11:52:31;;;;;;;4.73;2.27;;;;;;;;;;4978187;28;20219;-39
2023/03/30 11:55:09;;;;;;;5.20;2.50;;;;;;;;;;4974248;28;20626;-39
2023/03/30 11:57:40;;;;;;;4.57;2.77;;;;;;;;;;4980711;28;20200;-41
2023/03/30 12:00:17;;;;;;;7.87;2.60;;;;;;;;;;4980350;28;20638;-42
2023/03/30 12:02:47;;;;;;;5.47;2.77;;;;;;;;;;4978301;28;20259;-41
2023/03/30 12:05:18;;;;;;;6.50;2.87;;;;;;;;;;4979229;28;20207;-38
2023/03/30 12:07:48;;;;;;;3.27;2.30;;;;;;;;;;4982536;28;20211;-36
2023/03/30 12:10:19;;;;;;;5.33;2.30;;;;;;;;;;4978204;28;20196;-39
2023/03/30 12:12:48;;;;;;;4.63;2.37;;;;;;;;;;4980466;28;20224;-39
2023/03/30 12:15:30;;;;;;;3.93;2.53;;;;;;;;;;4979776;28;20291;-42
2023/03/30 12:18:01;;;;;;;5.23;3.07;;;;;;;;;;4979527;28;20212;-41
2023/03/30 12:20:32;;;;;;;6.93;3.10;;;;;;;;;;4979927;28;20581;-37
2023/03/30 12:23:03;;;;;;;4.87;2.97;;;;;;;;;;4977714;28;20225;-43
2023/03/30 12:25:34;;;;;;;6.83;2.97;;;;;;;;;;4975805;28;20217;-39
2023/03/30 12:28:11;;;;;;;4.33;2.97;;;;;;;;;;4979596;28;20214;-38
2023/03/30 12:30:53;;;;;;;7.70;2.90;;;;;;;;;;4972501;28;20207;-36
2023/03/30 12:33:26;;;;;;;5.23;2.63;;;;;;;;;;4978774;28;20311;-36
2023/03/30 12:36:00;;;;;;;7.53;3.17;;;;;;;;;;4977199;28;20303;-39
2023/03/30 12:38:28;;;;;;;3.90;2.90;;;;;;;;;;4979478;28;20204;-39
2023/03/30 12:41:17;;;;;;;8.60;2.90;;;;;;;;;;4978294;28;20200;-37
2023/03/30 12:43:50;;;;;;;7.73;2.77;;;;;;;;;;4981256;28;20257;-38
2023/03/30 12:46:29;;;;;;;9.27;3.63;;;;;;;;;;4973983;28;20206;-38
2023/03/30 12:49:02;;;;;;;5.17;3.23;;;;;;;;;;4971989;28;20200;-41
2023/03/30 12:51:40;;;;;;;5.70;2.70;;;;;;;;;;4980359;28;20271;-41
2023/03/30 12:54:13;;;;;;;5.80;2.80;;;;;;;;;;4972688;28;20231;-41
2023/03/30 12:56:46;;;;;;;4.10;2.60;;;;;;;;;;4977786;28;20197;-41
2023/03/30 12:59:41;;;;;;;4.47;2.30;;;;;;;;;;4977397;28;20235;-38
2023/03/30 13:02:26;;;;;;;5.87;2.77;;;;;;;;;;4948625;28;20228;-37
2023/03/30 13:04:53;;;;;;;4.27;2.27;;;;;;;;;;4979913;28;20396;-38
2023/03/30 13:07:22;;;;;;;6.27;2.73;;;;;;;;;;4979707;28;20200;-40
2023/03/30 13:09:54;;;;;;;3.50;2.97;;;;;;;;;;4981283;28;20202;-34
2023/03/30 13:12:32;;;;;;;4.53;2.10;;;;;;;;;;4980777;28;20280;-39
2023/03/30 13:15:04;;;;;;;7.17;2.80;;;;;;;;;;4979366;28;20207;-39
2023/03/30 13:17:46;;;;;;;3.90;2.00;;;;;;;;;;4980780;28;20208;-38
2023/03/30 13:20:17;;;;;;;6.77;2.63;;;;;;;;;;4982097;28;20206;-37
2023/03/30 13:22:53;;;;;;;4.00;2.90;;;;;;;;;;4978923;28;20290;-41
2023/03/30 13:25:28;;;;;;;5.37;2.50;;;;;;;;;;4981397;28;20210;-43
2023/03/30 13:27:58;;;;;;;5.77;2.27;;;;;;;;;;4978859;28;20279;-40
2023/03/30 13:30:28;;;;;;;5.53;2.13;;;;;;;;;;4974521;28;20201;-40
2023/03/30 13:33:03;;;;;;;4.53;2.30;;;;;;;;;;4978063;28;20231;-44
2023/03/30 13:35:35;;;;;;;6.00;2.93;;;;;;;;;;4982170;28;20217;-43
2023/03/30 13:38:17;;;;;;;3.00;2.60;;;;;;;;;;4978777;28;20291;-40
2023/03/30 13:40:47;;;;;;;4.73;2.20;;;;;;;;;;4979950;28;20209;-39
2023/03/30 13:43:21;;;;;;;4.77;1.90;;;;;;;;;;4980749;28;20225;-39
2023/03/30 13:45:50;;;;;;;4.47;2.30;;;;;;;;;;4979913;28;20420;-44
2023/03/30 13:48:26;;;;;;;4.60;2.10;;;;;;;;;;4980446;28;20719;-37
2023/03/30 13:50:56;;;;;;;4.00;2.03;;;;;;;;;;4984013;28;20193;-39
2023/03/30 13:53:25;;;;;;;3.97;2.10;;;;;;;;;;4976425;28;20220;-41
2023/03/30 13:55:53;;;;;;;3.83;1.93;;;;;;;;;;4978832;28;20295;-42
2023/03/30 13:58:22;;;;;;;5.50;2.10;;;;;;;;;;4972650;28;20219;-41
2023/03/30 14:00:50;;;;;;;2.23;1.80;;;;;;;;;;4978480;28;20213;-38
2023/03/30 14:03:31;;;;;;;5.13;2.00;;;;;;;;;;4978630;28;20298;-41
2023/03/30 14:06:04;;;;;;;4.87;2.53;;;;;;;;;;4981076;28;20198;-40
2023/03/30 14:08:34;;;;;;;2.33;2.03;;;;;;;;;;4972591;28;20210;-36
2023/03/30 14:11:03;;;;;;;5.43;2.20;;;;;;;;;;4980723;28;20212;-40
2023/03/30 14:13:30;;;;;;;3.80;2.10;;;;;;;;;;4979812;28;20303;-39
2023/03/30 14:15:57;;;;;;;6.07;2.37;;;;;;;;;;4987717;28;20212;-41
2023/03/30 14:18:26;;;;;;;4.73;2.13;;;;;;;;;;4973806;28;20211;-45
2023/03/30 14:20:55;;;;;;;6.33;2.33;;;;;;;;;;4978362;28;20243;-34
2023/03/30 14:23:29;;;;;;;5.43;2.10;;;;;;;;;;4973762;28;20237;-44
2023/03/30 14:25:58;;;;;;;1.70;1.60;;;;;;;;;;4985349;28;20219;-39
2023/03/30 14:28:28;;;;;;;4.83;1.83;;;;;;;;;;4985917;28;20211;-39
2023/03/30 14:30:56;;;;;;;3.67;1.70;;;;;;;;;;4978384;28;20214;-35
2023/03/30 14:33:23;;;;;;;1.80;1.50;;;;;;;;;;4993267;28;20226;-39
2023/03/30 14:35:51;;;;;;;2.60;1.53;;;;;;;;;;4974823;28;20609;-36
2023/03/30 14:38:22;;;;;;;2.20;1.50;;;;;;;;;;4973404;28;20211;-42
2023/03/30 14:40:52;;;;;;;4.80;1.33;;;;;;;;;;4992111;28;20212;-42
2023/03/30 14:43:20;;;;;;;1.23;1.10;;;;;;;;;;4984874;28;20231;-34
2023/03/30 14:45:48;;;;;;;4.53;1.10;;;;;;;;;;4981179;28;20218;-43
2023/03/30 14:48:21;;;;;;;6.10;1.37;;;;;;;;;;4981369;28;20209;-40
2023/03/30 14:50:49;;;;;;;3.00;1.50;;;;;;;;;;4985701;28;20268;-41
2023/03/30 14:53:24;;;;;;;4.90;1.70;;;;;;;;;;4991931;28;20223;-41
2023/03/30 14:55:56;;;;;;;2.33;1.30;;;;;;;;;;4984225;28;20212;-41
2023/03/30 14:58:24;;;;;;;3.80;1.43;;;;;;;;;;4992222;28;20259;-41
2023/03/30 15:00:52;;;;;;;1.53;1.20;;;;;;;;;;4984221;28;20208;-41
2023/03/30 15:03:19;;;;;;;2.50;1.30;;;;;;;;;;4989486;28;20231;-38
2023/03/30 15:05:46;;;;;;;4.10;1.30;;;;;;;;;;4971000;28;20213;-39
2023/03/30 15:08:16;;;;;;;3.73;1.30;;;;;;;;;;4971356;28;20423;-38
2023/03/30 15:10:45;;;;;;;1.40;1.30;;;;;;;;;;4985975;28;20220;-41
2023/03/30 15:13:18;;;;;;;3.80;1.50;;;;;;;;;;4979118;28;20237;-39
2023/03/30 15:15:46;;;;;;;3.70;1.50;;;;;;;;;;4989937;28;20204;-41
2023/03/30 15:18:17;;;;;;;6.03;1.50;;;;;;;;;;4992093;28;20736;-41
2023/03/30 15:20:44;;;;;;;5.20;1.80;;;;;;;;;;4982213;28;20217;-43
2023/03/30 15:23:13;;;;;;;3.87;1.23;;;;;;;;;;4970863;28;20929;-38
2023/03/30 15:25:40;;;;;;;3.33;1.30;;;;;;;;;;4975396;28;20210;-43
2023/03/30 15:28:08;;;;;;;2.73;1.23;;;;;;;;;;4988293;28;20211;-44
2023/03/30 15:30:38;;;;;;;3.20;1.10;;;;;;;;;;4985669;28;20219;-40
2023/03/30 15:33:06;;;;;;;1.53;1.07;;;;;;;;;;4978155;28;20220;-43
2023/03/30 15:35:35;;;;;;;4.83;1.50;;;;;;;;;;4989815;28;20230;-40
2023/03/30 15:38:03;;;;;;;3.23;1.23;;;;;;;;;;4985355;28;20259;-43
2023/03/30 15:40:38;;;;;;;3.07;1.40;;;;;;;;;;4972178;28;20209;-37
2023/03/30 15:43:12;;;;;;;4.50;2.33;;;;;;;;;;4973333;28;20233;-39
2023/03/30 15:45:41;;;;;;;3.77;2.07;;;;;;;;;;4977632;28;20215;-41
2023/03/30 15:48:10;;;;;;;1.97;0.93;;;;;;;;;;4977350;28;20581;-39
2023/03/30 15:50:38;;;;;;;1.20;0.90;;;;;;;;;;4991259;28;20275;-42
2023/03/30 15:53:05;;;;;;;5.40;1.37;;;;;;;;;;4992416;28;20220;-40
2023/03/30 15:55:33;;;;;;;2.97;1.10;;;;;;;;;;4985140;28;20301;-38
2023/03/30 15:58:02;;;;;;;1.97;1.20;;;;;;;;;;4986892;28;20232;-39
2023/03/30 16:00:30;;;;;;;2.87;0.83;;;;;;;;;;4981031;28;20211;-41
2023/03/30 16:03:00;;;;;;;0.93;0.87;;;;;;;;;;4984370;28;20237;-41
2023/03/30 16:05:29;;;;;;;2.07;1.10;;;;;;;;;;4975628;28;20204;-41
2023/03/30 16:07:56;;;;;;;3.07;1.00;;;;;;;;;;4978367;28;20669;-42
2023/03/30 16:10:25;;;;;;;3.33;1.03;;;;;;;;;;4975677;28;20211;-41